Time;durP1;ratioP1;P1;durP2;ratioP2;P2;SDS_P1;SDS_P2;PMS_P1;PMS_P2;Temp;Humidity;BMP_temperature;BMP_pressure;BME280_temperature;BME280_humidity;BME280_pressure;Samples;Min_cycle;Max_cycle;Signal;HPM_P1;HPM_P2
2023/01/14 00:01:32;;;;;;;33.70;22.20;;;;;;;-2.46;100.00;100151.31;109752;1283;23213;-69
2023/01/14 02:21:39;;;;;;;50.50;23.30;;;;;;;-4.01;100.00;100126.45;103956;1304;545935;-65
2023/01/14 02:24:27;;;;;;;46.30;22.40;;;;;;;-3.90;100.00;100136.71;109390;1288;22539;-66
2023/01/14 02:27:06;;;;;;;39.20;20.70;;;;;;;-3.72;100.00;100139.14;109689;1285;22290;-66
2023/01/14 02:30:01;;;;;;;35.50;17.50;;;;;;;-3.61;100.00;100142.35;108515;1285;23470;-66
2023/01/14 02:32:46;;;;;;;28.10;16.40;;;;;;;-3.53;100.00;100142.48;106575;1286;22693;-66
2023/01/14 02:35:43;;;;;;;24.60;14.50;;;;;;;-3.47;100.00;100148.66;106333;1283;278027;-66
2023/01/14 02:38:10;;;;;;;23.70;13.50;;;;;;;-3.47;100.00;100152.84;107068;1283;23348;-67
2023/01/14 02:40:44;;;;;;;22.70;13.80;;;;;;;-3.47;100.00;100154.16;106840;1283;22699;-65
2023/01/14 02:46:43;;;;;;;23.20;13.20;;;;;;;-3.36;100.00;100157.71;106851;1283;25350;-66
2023/01/14 02:49:12;;;;;;;19.20;12.50;;;;;;;-3.35;100.00;100165.73;106989;1283;24204;-66
2023/01/14 02:51:42;;;;;;;22.50;13.00;;;;;;;-3.38;100.00;100165.88;107003;1283;22623;-65
2023/01/14 02:54:10;;;;;;;20.60;12.80;;;;;;;-3.43;100.00;100163.41;106884;1283;23753;-65
2023/01/14 02:56:37;;;;;;;20.00;13.40;;;;;;;-3.43;100.00;100165.59;109777;1283;22991;-66
2023/01/14 02:59:46;;;;;;;18.80;12.30;;;;;;;-3.41;100.00;100164.08;109732;1283;22727;-67
2023/01/14 03:02:48;;;;;;;26.50;12.60;;;;;;;-3.36;100.00;100163.56;109692;1283;22852;-66
2023/01/14 03:05:35;;;;;;;19.90;12.00;;;;;;;-3.44;100.00;100163.32;109843;1283;22344;-66
2023/01/14 03:08:18;;;;;;;;;;;;;;;-3.45;100.00;100162.80;109872;1283;23227;-66
2023/01/14 03:10:48;;;;;;;21.60;13.00;;;;;;;-3.43;100.00;100162.84;109782;1283;22234;-67
2023/01/14 03:13:25;;;;;;;18.80;12.00;;;;;;;-3.40;100.00;100164.38;109778;1283;22428;-67
2023/01/14 03:15:56;;;;;;;19.90;12.60;;;;;;;-3.37;100.00;100172.86;109768;1283;22213;-67
2023/01/14 03:18:28;;;;;;;19.50;12.70;;;;;;;-3.39;100.00;100172.39;109796;1283;22651;-67
2023/01/14 03:21:01;;;;;;;20.70;13.50;;;;;;;-3.41;100.00;100175.09;109618;1286;23160;-67
2023/01/14 03:23:29;;;;;;;20.20;12.70;;;;;;;-3.38;100.00;100178.48;109592;1285;22229;-67
2023/01/14 03:25:57;;;;;;;18.90;11.80;;;;;;;-3.36;100.00;100177.88;109614;1285;22298;-66
2023/01/14 03:28:28;;;;;;;19.20;11.70;;;;;;;-3.30;100.00;100177.80;109551;1285;22350;-66
2023/01/14 03:30:58;;;;;;;18.30;11.70;;;;;;;-3.30;100.00;100177.79;109563;1285;23014;-66
2023/01/14 03:33:31;;;;;;;21.70;12.20;;;;;;;-3.36;100.00;100176.44;107514;1285;22872;-66
2023/01/14 03:35:58;;;;;;;20.30;12.20;;;;;;;-3.37;100.00;100171.13;106674;1285;23311;-66
2023/01/14 03:38:29;;;;;;;19.70;12.00;;;;;;;-3.37;100.00;100172.73;106642;1286;22636;-66
2023/01/14 03:40:56;;;;;;;19.00;12.30;;;;;;;-3.39;100.00;100172.32;107275;1285;23275;-66
2023/01/14 03:43:42;;;;;;;18.90;12.70;;;;;;;-3.46;100.00;100170.12;106742;1285;22543;-66
2023/01/14 03:46:09;;;;;;;20.90;13.20;;;;;;;-3.53;100.00;100166.08;106862;1285;23919;-66
2023/01/14 03:48:36;;;;;;;17.20;11.30;;;;;;;-3.52;100.00;100167.58;107001;1285;22919;-65
2023/01/14 03:51:11;;;;;;;19.00;11.80;;;;;;;-3.50;100.00;100173.06;106800;1285;25356;-65
2023/01/14 03:53:49;;;;;;;18.00;10.90;;;;;;;-3.53;100.00;100173.77;106929;1283;22705;-65
2023/01/14 03:56:23;;;;;;;19.60;12.10;;;;;;;-3.59;100.00;100173.19;106734;1285;22546;-66
2023/01/14 03:58:51;;;;;;;18.90;11.70;;;;;;;-3.60;100.00;100167.60;106792;1285;22716;-65
2023/01/14 04:01:33;;;;;;;19.40;10.90;;;;;;;-3.60;100.00;100168.52;106669;1285;22687;-65
2023/01/14 04:04:01;;;;;;;19.40;11.90;;;;;;;-3.60;100.00;100169.16;109682;1285;23243;-66
2023/01/14 04:06:28;;;;;;;20.70;12.60;;;;;;;-3.64;100.00;100166.84;109632;1285;23095;-66
2023/01/14 04:08:56;;;;;;;26.60;12.40;;;;;;;-3.69;100.00;100167.89;109547;1285;22231;-65
2023/01/14 04:11:23;;;;;;;20.20;13.10;;;;;;;-3.69;100.00;100169.65;109708;1285;22343;-66
2023/01/14 04:16:36;;;;;;;20.00;12.50;;;;;;;-3.66;100.00;100172.95;109769;1285;23101;-66
2023/01/14 04:19:03;;;;;;;22.50;12.90;;;;;;;-3.69;100.00;100170.99;109736;1285;22264;-66
2023/01/14 04:21:30;;;;;;;22.40;13.20;;;;;;;-3.73;100.00;100178.61;109720;1285;22966;-66
2023/01/14 04:23:57;;;;;;;24.00;12.70;;;;;;;-3.69;100.00;100184.08;109712;1285;22203;-66
2023/01/14 04:26:24;;;;;;;20.60;12.70;;;;;;;-3.64;100.00;100185.64;109702;1285;22776;-65
2023/01/14 04:28:51;;;;;;;22.50;13.10;;;;;;;-3.58;100.00;100188.34;109739;1285;23015;-66
2023/01/14 04:31:18;;;;;;;20.50;13.30;;;;;;;-3.55;100.00;100185.64;109717;1285;22895;-66
2023/01/14 04:33:45;;;;;;;24.30;14.20;;;;;;;-3.54;100.00;100185.05;109749;1285;22528;-66
2023/01/14 04:36:12;;;;;;;24.80;13.50;;;;;;;-3.51;100.00;100187.34;109694;1285;22380;-66
2023/01/14 04:38:39;;;;;;;21.80;13.70;;;;;;;-3.52;100.00;100184.81;109740;1285;22294;-66
2023/01/14 04:41:06;;;;;;;25.10;14.20;;;;;;;-3.57;100.00;100186.28;109712;1285;23021;-66
2023/01/14 04:43:33;;;;;;;21.80;13.50;;;;;;;-3.62;100.00;100188.77;109720;1285;23058;-66
2023/01/14 04:46:00;;;;;;;22.30;13.70;;;;;;;-3.61;100.00;100188.86;109720;1284;22541;-65
2023/01/14 04:48:27;;;;;;;23.00;14.00;;;;;;;-3.58;100.00;100190.41;109710;1285;22257;-66
2023/01/14 04:50:54;;;;;;;23.50;14.40;;;;;;;-3.54;100.00;100190.84;109724;1285;22301;-66
2023/01/14 04:53:22;;;;;;;23.80;14.50;;;;;;;-3.50;100.00;100194.34;109758;1285;22225;-66
2023/01/14 04:55:55;;;;;;;24.80;14.20;;;;;;;-3.55;100.00;100192.92;109736;1285;22740;-66
2023/01/14 04:58:22;;;;;;;25.60;15.40;;;;;;;-3.59;100.00;100196.45;109734;1285;22239;-66
2023/01/14 05:00:50;;;;;;;26.60;15.10;;;;;;;-3.57;100.00;100198.27;109726;1285;22972;-66
2023/01/14 05:03:18;;;;;;;24.70;14.60;;;;;;;-3.53;100.00;100199.31;109727;1285;22241;-66
2023/01/14 05:05:45;;;;;;;23.70;14.60;;;;;;;-3.54;100.00;100199.55;109784;1285;22264;-66
2023/01/14 05:08:13;;;;;;;27.50;15.90;;;;;;;-3.57;100.00;100204.54;109709;1285;22390;-65
2023/01/14 05:10:40;;;;;;;25.90;15.30;;;;;;;-3.62;100.00;100202.30;107802;1285;23146;-65
2023/01/14 05:13:07;;;;;;;25.40;14.70;;;;;;;-3.61;100.00;100207.58;106978;1285;25083;-65
2023/01/14 05:15:40;;;;;;;24.70;15.10;;;;;;;-3.59;100.00;100206.48;106785;1285;22547;-65
2023/01/14 05:18:09;;;;;;;24.50;14.70;;;;;;;-3.56;100.00;100212.27;106697;1285;25261;-65
2023/01/14 05:20:35;;;;;;;24.40;14.60;;;;;;;-3.62;100.00;100206.90;106848;1285;22541;-65
2023/01/14 05:23:09;;;;;;;25.00;15.60;;;;;;;-3.66;100.00;100207.17;106920;1285;22539;-65
2023/01/14 05:25:36;;;;;;;27.30;16.10;;;;;;;-3.67;100.00;100211.13;106819;1285;22581;-65
2023/01/14 05:28:05;;;;;;;28.10;16.20;;;;;;;-3.64;100.00;100208.15;106858;1285;22526;-65
2023/01/14 05:30:32;;;;;;;27.20;15.50;;;;;;;-3.59;100.00;100208.60;106788;1285;22549;-65
2023/01/14 05:32:59;;;;;;;27.10;15.80;;;;;;;-3.56;100.00;100209.23;106889;1284;25427;-65
2023/01/14 05:35:26;;;;;;;27.60;16.20;;;;;;;-3.63;100.00;100213.10;106888;1285;22547;-65
2023/01/14 05:37:53;;;;;;;29.50;16.60;;;;;;;-3.70;100.00;100213.05;107027;1285;24439;-65
2023/01/14 05:40:20;;;;;;;29.20;17.30;;;;;;;-3.70;100.00;100214.48;107021;1285;26544;-65
2023/01/14 05:45:48;;;;;;;29.30;17.00;;;;;;;-3.66;100.00;100218.67;107201;1281;22562;-65
2023/01/14 05:48:20;;;;;;;32.30;18.00;;;;;;;-3.71;100.00;100218.73;107061;1282;26132;-65
2023/01/14 05:50:55;;;;;;;32.20;17.50;;;;;;;-3.75;100.00;100212.63;107015;1281;25211;-65
2023/01/14 05:53:22;;;;;;;33.70;18.20;;;;;;;-3.71;100.00;100214.55;106915;1282;22575;-65
2023/01/14 05:55:49;;;;;;;33.90;18.00;;;;;;;-3.68;100.00;100214.61;106829;1282;22541;-65
2023/01/14 05:58:16;;;;;;;37.30;18.90;;;;;;;-3.67;100.00;100214.64;106961;1282;22537;-65
2023/01/14 06:06:22;;;;;;;33.70;18.20;;;;;;;-3.69;100.00;100217.41;107089;1281;23409;-66
2023/01/14 06:08:52;;;;;;;33.70;18.00;;;;;;;-3.66;100.00;100214.54;107085;1281;22950;-66
2023/01/14 06:11:20;;;;;;;37.60;20.70;;;;;;;-3.65;100.00;100223.33;107031;1282;22546;-65
2023/01/14 06:13:48;;;;;;;36.00;19.50;;;;;;;-3.69;100.00;100220.20;106996;1281;25346;-66
2023/01/14 06:16:15;;;;;;;35.10;19.00;;;;;;;-3.71;100.00;100220.51;107473;1281;22430;-66
2023/01/14 06:18:42;;;;;;;33.30;18.40;;;;;;;-3.68;100.00;100217.60;107525;1281;25404;-66
2023/01/14 06:21:11;;;;;;;34.70;18.10;;;;;;;-3.61;100.00;100211.38;107318;1280;24371;-65
2023/01/14 06:23:38;;;;;;;32.10;17.70;;;;;;;-3.54;100.00;100216.98;107613;1280;22553;-65
2023/01/14 06:26:13;;;;;;;34.00;18.40;;;;;;;-3.55;100.00;100211.53;107256;1280;25224;-66
2023/01/14 06:28:40;;;;;;;34.80;18.70;;;;;;;-3.59;100.00;100212.66;107170;1280;22557;-66
2023/01/14 06:31:19;;;;;;;34.20;17.90;;;;;;;-3.61;100.00;100212.38;107256;1280;25498;-66
2023/01/14 06:33:46;;;;;;;31.40;17.10;;;;;;;-3.56;100.00;100215.76;110042;1279;22295;-67
2023/01/14 06:36:14;;;;;;;29.20;16.90;;;;;;;-3.51;100.00;100212.74;109997;1279;22278;-67
2023/01/14 06:38:41;;;;;;;29.10;16.90;;;;;;;-3.49;100.00;100216.94;109992;1279;23000;-66
2023/01/14 06:41:09;;;;;;;30.50;17.10;;;;;;;-3.48;100.00;100220.90;110040;1279;22283;-68
2023/01/14 06:43:36;;;;;;;32.20;16.80;;;;;;;-3.48;100.00;100220.60;109978;1279;22234;-67
2023/01/14 06:46:03;;;;;;;32.30;16.50;;;;;;;-3.43;100.00;100223.61;110000;1279;22265;-66
2023/01/14 06:48:30;;;;;;;26.80;15.10;;;;;;;-3.37;100.00;100222.00;110045;1279;22218;-66
2023/01/14 06:51:02;;;;;;;29.20;16.50;;;;;;;-3.35;100.00;100218.54;110075;1279;22503;-66
2023/01/14 06:53:29;;;;;;;31.90;17.30;;;;;;;-3.35;100.00;100217.92;110068;1279;22188;-67
2023/01/14 06:56:03;;;;;;;33.50;17.70;;;;;;;-3.37;100.00;100218.44;110021;1279;22256;-66
2023/01/14 06:58:30;;;;;;;32.10;18.20;;;;;;;-3.30;100.00;100223.73;110041;1279;22222;-66
2023/01/14 07:00:57;;;;;;;32.20;18.00;;;;;;;-3.21;100.00;100222.39;109981;1279;22440;-66
2023/01/14 07:03:26;;;;;;;29.00;17.50;;;;;;;-3.16;100.00;100224.77;110028;1279;22222;-66
2023/01/14 07:05:53;;;;;;;31.70;17.90;;;;;;;-3.18;100.00;100222.84;110016;1279;22375;-66
2023/01/14 07:08:21;;;;;;;34.30;19.10;;;;;;;-3.19;100.00;100224.73;110044;1279;22459;-67
2023/01/14 07:10:49;;;;;;;33.20;18.10;;;;;;;-3.19;100.00;100224.91;110057;1279;22430;-66
2023/01/14 07:13:17;;;;;;;34.60;18.30;;;;;;;-3.17;100.00;100227.86;110009;1279;23405;-66
2023/01/14 07:15:44;;;;;;;31.30;17.70;;;;;;;-3.18;100.00;100228.03;110001;1279;22259;-66
2023/01/14 07:18:11;;;;;;;33.20;18.10;;;;;;;-3.23;100.00;100232.15;110005;1279;22240;-66
2023/01/14 07:20:39;;;;;;;34.40;18.90;;;;;;;-3.26;100.00;100231.45;109960;1281;22405;-66
2023/01/14 07:23:06;;;;;;;37.20;19.50;;;;;;;-3.23;100.00;100237.27;109945;1281;22212;-67
2023/01/14 07:25:33;;;;;;;35.30;19.20;;;;;;;-3.17;100.00;100242.45;109920;1281;23022;-67
2023/01/14 07:28:00;;;;;;;33.10;18.00;;;;;;;-3.10;100.00;100250.31;109880;1281;22309;-67
2023/01/14 07:30:27;;;;;;;37.30;21.00;;;;;;;-3.07;100.00;100248.64;109917;1281;23454;-67
2023/01/14 07:32:57;;;;;;;33.50;19.00;;;;;;;-3.07;100.00;100253.16;110176;1278;22269;-67
2023/01/14 07:35:24;;;;;;;42.80;22.40;;;;;;;-3.06;100.00;100254.92;110166;1278;22206;-67
2023/01/14 07:37:55;;;;;;;39.20;22.30;;;;;;;-3.01;100.00;100257.50;110176;1277;22295;-67
2023/01/14 07:40:22;;;;;;;35.90;19.60;;;;;;;-2.92;100.00;100261.34;110174;1277;23462;-67
2023/01/14 07:42:59;;;;;;;36.40;19.80;;;;;;;-2.89;100.00;100258.65;110193;1277;22765;-67
2023/01/14 07:45:27;;;;;;;34.00;18.90;;;;;;;-2.90;100.00;100255.73;110204;1278;22211;-67
2023/01/14 07:47:54;;;;;;;34.30;19.10;;;;;;;-2.90;100.00;100258.09;109282;1277;22512;-67
2023/01/14 07:50:21;;;;;;;29.60;16.70;;;;;;;-2.86;100.00;100260.21;107459;1278;25511;-66
2023/01/14 13:55:57;;;;;;;58.70;23.40;;;;;;;-3.51;100.00;100263.52;104621;1301;545033;-66
2023/01/14 13:58:32;;;;;;;58.20;26.40;;;;;;;-3.37;100.00;100265.67;106466;1289;24461;-66
2023/01/14 14:01:28;;;;;;;52.10;25.60;;;;;;;-3.19;100.00;100265.41;107098;1281;22562;-66
2023/01/14 14:03:57;;;;;;;48.20;23.30;;;;;;;-3.03;100.00;100266.02;107101;1281;25520;-66
2023/01/14 14:06:26;;;;;;;101.10;37.70;;;;;;;-2.89;100.00;100270.52;107044;1281;24321;-66
2023/01/14 14:09:16;;;;;;;55.50;24.80;;;;;;;-2.77;100.00;100274.09;106916;1279;361197;-66
2023/01/14 14:12:07;;;;;;;44.70;21.20;;;;;;;-2.67;100.00;100276.25;107149;1279;24360;-66
2023/01/14 14:14:36;;;;;;;41.80;21.00;;;;;;;-2.60;100.00;100272.02;106909;1278;22656;-66
2023/01/14 14:17:05;;;;;;;46.60;25.50;;;;;;;-2.57;100.00;100279.84;107052;1279;22703;-66
2023/01/14 14:19:35;;;;;;;56.50;31.40;;;;;;;-2.55;100.00;100283.45;107217;1279;22948;-66
2023/01/14 14:22:24;;;;;;;;;;;;;;;-2.48;100.00;100289.29;107308;1279;23542;-66
2023/01/14 14:24:55;;;;;;;34.50;18.60;;;;;;;-2.40;100.00;100292.89;107324;1279;22622;-66
2023/01/14 14:27:35;;;;;;;31.10;17.00;;;;;;;-2.31;100.00;100296.09;107136;1279;27627;-66
2023/01/14 14:30:09;;;;;;;38.20;21.20;;;;;;;-2.26;100.00;100294.06;107165;1279;25300;-66
2023/01/14 14:32:38;;;;;;;39.70;22.30;;;;;;;-2.29;100.00;100294.38;110020;1279;22875;-67
2023/01/14 14:35:15;;;;;;;40.90;22.60;;;;;;;-2.32;100.00;100291.90;109949;1279;22246;-67
2023/01/14 14:38:01;;;;;;;44.30;25.10;;;;;;;-2.26;100.00;100295.36;110104;1279;22191;-67
2023/01/14 14:40:35;;;;;;;32.50;17.80;;;;;;;-2.19;100.00;100292.92;109933;1279;22905;-67
2023/01/14 14:43:02;;;;;;;44.00;24.70;;;;;;;-2.16;100.00;100290.54;109921;1279;22223;-67
2023/01/14 14:45:36;;;;;;;41.20;21.40;;;;;;;-2.18;100.00;100289.26;109967;1279;22408;-67
2023/01/14 14:48:21;;;;;;;43.90;24.10;;;;;;;-2.26;100.00;100292.59;109934;1279;22213;-67
2023/01/14 14:50:49;;;;;;;45.90;27.20;;;;;;;-2.29;100.00;100289.65;109973;1279;22299;-67
2023/01/14 14:53:27;;;;;;;67.60;37.20;;;;;;;-2.22;100.00;100291.44;110044;1279;22290;-66
2023/01/14 14:55:55;;;;;;;54.60;31.40;;;;;;;-2.10;100.00;100296.67;109962;1279;22221;-66
2023/01/14 14:58:23;;;;;;;59.20;32.10;;;;;;;-2.00;100.00;100294.57;110067;1279;22307;-67
2023/01/14 15:00:54;;;;;;;38.00;20.30;;;;;;;-1.95;100.00;100292.73;109959;1279;22194;-67
2023/01/14 15:03:21;;;;;;;45.60;26.10;;;;;;;-1.96;100.00;100294.14;109958;1279;22285;-66
2023/01/14 15:05:48;;;;;;;58.30;31.40;;;;;;;-2.02;100.00;100293.38;109962;1279;22290;-66
2023/01/14 15:08:25;;;;;;;53.00;25.00;;;;;;;-2.01;100.00;100291.88;109959;1279;23233;-66
2023/01/14 15:10:52;;;;;;;67.50;28.20;;;;;;;-2.02;100.00;100292.11;109944;1280;22231;-66
2023/01/14 15:13:31;;;;;;;52.50;28.80;;;;;;;-2.02;100.00;100296.38;109927;1281;22297;-66
2023/01/14 15:16:06;;;;;;;45.00;23.70;;;;;;;-2.03;100.00;100298.42;109806;1280;22301;-66
2023/01/14 15:18:41;;;;;;;50.20;27.50;;;;;;;-2.08;100.00;100299.55;109824;1280;22421;-66
2023/01/14 15:21:08;;;;;;;45.80;26.20;;;;;;;-2.11;100.00;100297.45;109916;1279;22418;-66
2023/01/14 15:23:37;;;;;;;40.90;21.90;;;;;;;-2.08;100.00;100296.42;109861;1279;22321;-66
2023/01/14 15:26:04;;;;;;;38.50;20.50;;;;;;;-2.05;100.00;100290.46;109907;1279;22281;-66
2023/01/14 15:28:31;;;;;;;33.40;19.50;;;;;;;-1.98;100.00;100298.31;109951;1280;22464;-66
2023/01/14 15:31:00;;;;;;;34.80;19.70;;;;;;;-1.98;100.00;100299.81;108966;1279;22537;-66
2023/01/14 15:33:31;;;;;;;40.90;22.20;;;;;;;-2.05;100.00;100294.80;107200;1279;22536;-66
2023/01/14 15:36:06;;;;;;;49.20;27.90;;;;;;;-2.12;100.00;100292.81;107357;1279;22740;-66
2023/01/14 15:38:36;;;;;;;64.80;33.50;;;;;;;-2.13;100.00;100291.83;108099;1279;22413;-66
2023/01/14 15:41:10;;;;;;;66.10;35.70;;;;;;;-2.14;100.00;100287.16;107771;1279;22582;-66
2023/01/14 15:43:39;;;;;;;39.90;21.40;;;;;;;-2.14;100.00;100286.59;107488;1280;22537;-66
2023/01/14 15:46:21;;;;;;;49.70;23.20;;;;;;;-2.18;100.00;100287.42;107439;1280;22576;-66
2023/01/14 15:48:56;;;;;;;45.80;23.10;;;;;;;-2.24;100.00;100281.59;107156;1279;22607;-66
2023/01/14 15:51:23;;;;;;;41.80;23.30;;;;;;;-2.24;100.00;100285.16;107316;1279;25266;-66
2023/01/14 15:53:50;;;;;;;42.60;21.80;;;;;;;-2.20;100.00;100285.36;107163;1279;23218;-66
2023/01/14 15:56:19;;;;;;;48.60;25.00;;;;;;;-2.19;100.00;100284.35;106866;1279;22628;-67
2023/01/14 15:58:55;;;;;;;46.60;25.10;;;;;;;-2.24;100.00;100283.12;107406;1279;22250;-66
2023/01/14 16:01:23;;;;;;;48.30;24.90;;;;;;;-2.28;100.00;100285.08;109960;1279;22218;-65
2023/01/14 16:03:50;;;;;;;49.50;24.10;;;;;;;-2.23;100.00;100284.81;109992;1280;22183;-67
2023/01/14 16:06:33;;;;;;;46.00;23.30;;;;;;;-2.15;100.00;100283.40;110014;1279;22408;-66
2023/01/14 16:09:14;;;;;;;47.80;23.30;;;;;;;-2.10;100.00;100285.08;110003;1279;23076;-66
2023/01/14 16:11:44;;;;;;;;;;;;;;;-2.11;100.00;100287.70;109977;1279;22429;-66
2023/01/14 16:14:17;;;;;;;43.20;21.50;;;;;;;-2.17;100.00;100290.51;109990;1279;22789;-67
2023/01/14 16:16:44;;;;;;;50.60;24.40;;;;;;;-2.22;100.00;100286.27;110129;1275;22228;-66
2023/01/14 16:19:12;;;;;;;50.60;24.00;;;;;;;-2.19;100.00;100285.63;110224;1275;22676;-66
2023/01/14 16:21:40;;;;;;;43.70;21.80;;;;;;;-2.14;100.00;100283.79;110229;1275;23037;-67
2023/01/14 16:24:07;;;;;;;41.60;21.40;;;;;;;-2.10;100.00;100286.83;110324;1275;22248;-67
2023/01/14 16:26:35;;;;;;;39.00;21.20;;;;;;;-2.06;100.00;100286.70;110308;1275;22433;-66
2023/01/14 16:29:02;;;;;;;45.50;22.10;;;;;;;-2.09;100.00;100284.64;110113;1275;22326;-67
2023/01/14 16:31:29;;;;;;;49.20;23.40;;;;;;;-2.13;100.00;100286.53;110241;1275;22204;-67
2023/01/14 16:33:56;;;;;;;41.80;21.20;;;;;;;-2.10;100.00;100291.34;110217;1275;22161;-66
2023/01/14 16:36:23;;;;;;;40.50;21.10;;;;;;;-2.05;100.00;100291.23;110324;1275;22210;-66
2023/01/14 16:38:50;;;;;;;42.20;20.30;;;;;;;-2.00;100.00;100293.49;110088;1275;22289;-66
2023/01/14 16:41:18;;;;;;;44.00;22.10;;;;;;;-2.02;100.00;100293.52;110210;1275;23115;-66
2023/01/14 16:43:47;;;;;;;48.70;22.70;;;;;;;-2.05;100.00;100296.70;110298;1276;22214;-67
2023/01/14 16:46:15;;;;;;;43.20;21.20;;;;;;;-2.07;100.00;100293.95;110304;1275;22220;-66
2023/01/14 16:48:42;;;;;;;39.90;20.20;;;;;;;-2.03;100.00;100293.79;110229;1275;22284;-67
2023/01/14 16:51:17;;;;;;;44.60;21.90;;;;;;;-1.97;100.00;100292.27;110221;1275;22214;-66
2023/01/14 16:53:45;;;;;;;41.70;22.20;;;;;;;-1.90;100.00;100292.66;110022;1275;22458;-66
2023/01/14 16:56:12;;;;;;;40.70;20.80;;;;;;;-1.83;100.00;100293.98;110234;1275;22188;-66
2023/01/14 16:58:39;;;;;;;44.00;21.30;;;;;;;-1.83;100.00;100298.48;110222;1276;22236;-66
2023/01/14 17:01:06;;;;;;;47.60;22.90;;;;;;;-1.85;100.00;100302.44;110263;1276;22605;-67
2023/01/14 17:03:37;;;;;;;37.70;20.70;;;;;;;-1.85;100.00;100306.13;110416;1275;22882;-67
2023/01/14 17:06:05;;;;;;;44.30;22.60;;;;;;;-1.81;100.00;100303.44;110136;1276;22290;-67
2023/01/14 20:24:37;;;;;;;88.70;33.80;;;;;;;-3.10;100.00;100289.92;104480;1304;544866;-70
2023/01/14 20:27:04;;;;;;;85.80;33.80;;;;;;;-2.97;100.00;100293.48;106632;1288;22586;-69
2023/01/14 20:29:31;;;;;;;68.90;31.50;;;;;;;-2.81;100.00;100290.57;106557;1288;23403;-69
2023/01/14 20:31:58;;;;;;;71.80;31.60;;;;;;;-2.66;100.00;100289.20;106548;1288;23132;-69
2023/01/14 20:34:26;;;;;;;62.00;30.10;;;;;;;-2.53;100.00;100291.84;106592;1288;22578;-70
2023/01/14 20:36:53;;;;;;;60.20;28.70;;;;;;;-2.41;100.00;100291.36;106735;1288;25247;-69
2023/01/14 20:39:22;;;;;;;49.90;26.70;;;;;;;-2.30;100.00;100295.80;106588;1286;112001;-70
2023/01/14 20:47:23;;;;;;;41.30;22.40;;;;;;;-2.05;100.00;100295.55;107577;1275;25350;-70
2023/01/14 20:49:50;;;;;;;38.70;21.40;;;;;;;-2.03;100.00;100294.79;110302;1274;22389;-69
2023/01/14 20:52:17;;;;;;;40.40;22.50;;;;;;;-2.01;100.00;100301.08;110414;1251;22866;-70
2023/01/14 20:54:45;;;;;;;42.00;22.70;;;;;;;-1.92;100.00;100305.42;108108;1274;22565;-70
2023/01/14 20:57:17;;;;;;;38.80;21.50;;;;;;;-1.86;100.00;100307.67;107419;1274;23489;-69
2023/01/14 20:59:44;;;;;;;41.10;21.90;;;;;;;-1.79;100.00;100306.86;107313;1274;22662;-69
2023/01/14 21:02:11;;;;;;;39.90;23.00;;;;;;;-1.74;100.00;100311.58;107387;1274;24196;-69
2023/01/14 21:04:39;;;;;;;38.40;22.40;;;;;;;-1.72;100.00;100307.66;107449;1275;25290;-70
2023/01/14 21:07:07;;;;;;;42.80;23.10;;;;;;;-1.75;100.00;100307.10;107677;1274;24413;-69
2023/01/14 21:09:52;;;;;;;38.60;22.10;;;;;;;-1.77;100.00;100306.23;107663;1274;22550;-70
2023/01/14 21:12:20;;;;;;;39.60;22.50;;;;;;;-1.73;100.00;100303.70;107681;1274;22563;-70
2023/01/14 21:23:08;;;;;;;35.60;20.80;;;;;;;-1.67;100.00;100297.98;107625;1274;24222;-69
2023/01/14 21:25:36;;;;;;;40.80;21.70;;;;;;;-1.72;100.00;100298.89;107531;1274;23259;-70
2023/01/14 21:28:04;;;;;;;38.80;21.90;;;;;;;-1.69;100.00;100303.17;107417;1275;23762;-69
2023/01/14 21:30:33;;;;;;;42.10;21.40;;;;;;;-1.64;100.00;100305.67;107396;1275;23339;-70
2023/01/14 21:33:03;;;;;;;35.80;20.80;;;;;;;-1.61;100.00;100301.87;107349;1275;22566;-70
2023/01/14 21:35:32;;;;;;;35.00;20.70;;;;;;;-1.58;100.00;100302.91;107483;1275;24208;-70
2023/01/14 21:38:00;;;;;;;34.90;20.30;;;;;;;-1.56;100.00;100294.69;110358;1274;23040;-70
2023/01/14 21:40:28;;;;;;;40.00;22.80;;;;;;;-1.59;100.00;100299.31;110412;1275;22229;-69
2023/01/14 21:45:43;;;;;;;36.10;21.80;;;;;;;-1.57;100.00;100296.06;110451;1275;23181;-70
2023/01/14 21:48:22;;;;;;;35.60;21.20;;;;;;;-1.53;100.00;100296.86;110413;1275;22225;-70
2023/01/14 21:50:50;;;;;;;39.60;22.30;;;;;;;-1.49;100.00;100298.93;110423;1275;22242;-70
2023/01/14 21:53:17;;;;;;;39.80;22.60;;;;;;;-1.43;100.00;100301.55;110435;1275;22865;-70
2023/01/14 21:55:45;;;;;;;38.60;21.70;;;;;;;-1.41;100.00;100303.42;110424;1275;23100;-70
2023/01/14 21:58:13;;;;;;;39.10;22.60;;;;;;;-1.44;100.00;100302.39;110383;1275;23018;-70
2023/01/14 22:00:41;;;;;;;44.60;23.80;;;;;;;-1.44;100.00;100303.96;110439;1275;22304;-70
2023/01/14 22:03:09;;;;;;;43.00;24.50;;;;;;;-1.38;100.00;100305.48;110317;1275;22176;-70
2023/01/14 22:05:36;;;;;;;39.60;22.30;;;;;;;-1.31;100.00;100302.97;108868;1275;23700;-69
2023/01/14 22:08:04;;;;;;;38.60;23.30;;;;;;;-1.25;100.00;100305.33;107532;1270;22550;-70
2023/01/14 22:10:32;;;;;;;38.00;22.10;;;;;;;-1.25;100.00;100313.64;107409;1275;22550;-69
2023/01/14 22:13:01;;;;;;;38.30;22.30;;;;;;;-1.27;100.00;100310.47;107687;1275;22514;-70
2023/01/14 22:15:28;;;;;;;38.60;21.70;;;;;;;-1.28;100.00;100309.96;107724;1274;22904;-70
2023/01/14 22:17:56;;;;;;;35.80;21.50;;;;;;;-1.26;100.00;100304.73;109063;1275;22866;-70
2023/01/14 22:20:23;;;;;;;33.40;20.40;;;;;;;-1.25;100.00;100296.16;110342;1275;22951;-70
2023/01/14 22:22:49;;;;;;;37.10;21.20;;;;;;;-1.23;100.00;100291.71;110333;1275;22862;-70
2023/01/14 22:25:17;;;;;;;36.70;21.20;;;;;;;-1.23;100.00;100284.72;110365;1275;22318;-70
2023/01/14 22:27:44;;;;;;;37.10;20.80;;;;;;;-1.25;100.00;100289.10;110362;1275;22897;-70
2023/01/14 22:30:11;;;;;;;34.80;20.50;;;;;;;-1.28;100.00;100286.27;110406;1269;22213;-70
2023/01/14 22:32:39;;;;;;;35.80;21.20;;;;;;;-1.29;100.00;100286.49;110364;1275;22292;-70
2023/01/14 22:35:07;;;;;;;38.00;21.30;;;;;;;-1.23;100.00;100289.66;109471;1269;23405;-70
2023/01/14 22:37:34;;;;;;;38.50;21.80;;;;;;;-1.13;100.00;100293.52;107523;1275;24362;-70
2023/01/14 22:40:01;;;;;;;33.50;20.20;;;;;;;-1.06;100.00;100295.14;107367;1275;25281;-70
2023/01/14 22:42:28;;;;;;;33.50;20.10;;;;;;;-1.00;100.00;100289.92;107620;1275;25223;-70
2023/01/14 22:44:55;;;;;;;38.30;21.90;;;;;;;-1.00;100.00;100279.85;107558;1275;22995;-70
2023/01/14 22:47:22;;;;;;;37.40;22.20;;;;;;;-1.04;100.00;100277.98;107592;1274;22560;-70
2023/01/14 22:49:49;;;;;;;37.20;22.10;;;;;;;-1.09;100.00;100282.15;107435;1274;22527;-70
2023/01/14 22:52:16;;;;;;;35.30;20.40;;;;;;;-1.09;100.00;100276.73;107480;1274;23350;-70
2023/01/14 22:54:45;;;;;;;34.70;20.60;;;;;;;-1.07;100.00;100272.60;107463;1275;22545;-69
2023/01/14 22:57:13;;;;;;;31.50;18.30;;;;;;;-1.09;100.00;100264.55;107351;1275;24337;-69
2023/01/14 22:59:40;;;;;;;37.70;20.80;;;;;;;-1.14;100.00;100256.77;107527;1275;23692;-69
2023/01/14 23:02:07;;;;;;;32.70;19.30;;;;;;;-1.21;100.00;100247.84;107382;1275;23477;-70
2023/01/14 23:04:34;;;;;;;35.10;20.40;;;;;;;-1.26;100.00;100241.42;107384;1274;22635;-70
2023/01/14 23:07:02;;;;;;;34.50;20.40;;;;;;;-1.24;100.00;100242.29;107445;1275;22574;-70
2023/01/14 23:09:37;;;;;;;35.40;20.30;;;;;;;-1.20;100.00;100243.05;107351;1275;22903;-70
2023/01/14 23:12:08;;;;;;;33.70;20.00;;;;;;;-1.17;100.00;100245.33;107414;1275;22577;-70
2023/01/14 23:14:36;;;;;;;32.80;19.10;;;;;;;-1.16;100.00;100247.17;107767;1275;25332;-69
2023/01/14 23:19:49;;;;;;;36.20;21.20;;;;;;;-1.24;100.00;100246.48;107692;1275;22538;-70